Welcome to Northern Hawkes Bay. New Zealand.
PWS Header
      nz Flag



Hit Counter


W3C Valid W3C Valid logo


    Wairoa

Select any of the Stations below to visit their websites.










Historic Data from Weather Underground
Select the location of interest below. Wairoa is the default. Please have patience, this Data is slow to load in.
Northern Hawkes Bay Historical Data
Daily Summary for January 27, 2017 Units:  English    Metric   Both
« Previous Day
Next Day »
Daily Weekly Monthly Yearly Custom
  High: Low: Average:
Temperature: 85.1 °F 55.2 °F 71.6 °F
Dew Point: 56.8 °F 46 °F 52.2 °F
Humidity: 90% 29% 55%
Wind Speed: 12.1mph 0mph 4.2mph
Wind Gust: 16.8mph - -
Wind- - SW
Pressure: 29.9 in 29.8 in -
Precipitation: 0 in    
Historical Graphs
 
 
Tabular Data for January 27, 2017
Time Temperature Dew Point Pressure Wind Wind Speed Wind Gust Humidity Rainfall Rate (Hourly) solar
00:03 64 °F 53.8 °F 29.8 in North 3.1 mph 5.4 mph 69% 0 in 0 W/m2
00:08 64 °F 53.8 °F 29.8 in NNW 3.8 mph 6.9 mph 69% 0 in 0 W/m2
00:13 64.2 °F 54 °F 29.8 in NNW 4.5 mph 6.9 mph 69% 0 in 0 W/m2
00:18 64.6 °F 53.4 °F 29.8 in NNW 4.5 mph 7.6 mph 67% 0 in 0 W/m2
00:23 64.6 °F 53.4 °F 29.8 in North 0.7 mph 7.6 mph 67% 0 in 0 W/m2
00:28 64.4 °F 53.2 °F 29.8 in Calm   6 mph 67% 0 in 0 W/m2
00:33 64 °F 53.2 °F 29.8 in Calm   4.5 mph 68% 0 in 0 W/m2
00:38 63.5 °F 53.2 °F 29.8 in NNE 1.6 mph 3.8 mph 69% 0 in 0 W/m2
00:43 63.3 °F 53.4 °F 29.8 in Calm   3.8 mph 70% 0 in 0 W/m2
00:48 63 °F 53.1 °F 29.8 in Calm   3.1 mph 70% 0 in 0 W/m2
00:53 62.4 °F 53.2 °F 29.8 in Calm   0.7 mph 72% 0 in 0 W/m2
00:58 62.2 °F 53.1 °F 29.8 in Calm     72% 0 in 0 W/m2
01:03 61.9 °F 52.9 °F 29.8 in Calm     72% 0 in 0 W/m2
01:08 61.3 °F 52.3 °F 29.8 in Calm     72% 0 in 0 W/m2
01:13 61.3 °F 53.1 °F 29.8 in Calm   1.6 mph 74% 0 in 0 W/m2
01:18 61.3 °F 53.1 °F 29.8 in North 2.2 mph 3.1 mph 74% 0 in 0 W/m2
01:23 61.3 °F 53.4 °F 29.8 in North 3.8 mph 5.4 mph 75% 0 in 0 W/m2
01:28 61.5 °F 53.4 °F 29.8 in North 2.2 mph 5.4 mph 75% 0 in 0 W/m2
01:33 61.5 °F 53.4 °F 29.8 in North 2.2 mph 6 mph 75% 0 in 0 W/m2
01:38 61.7 °F 53.8 °F 29.8 in North 3.1 mph 6 mph 75% 0 in 0 W/m2
01:43 61.9 °F 54 °F 29.8 in North 3.8 mph 9.2 mph 75% 0 in 0 W/m2
01:48 62.4 °F 54 °F 29.8 in NNW 4.5 mph 9.2 mph 74% 0 in 0 W/m2
01:53 63 °F 54.1 °F 29.8 in NNW 3.8 mph 8.3 mph 73% 0 in 0 W/m2
01:58 63.1 °F 54 °F 29.8 in NNW 4.5 mph 8.3 mph 72% 0 in 0 W/m2
02:03 63 °F 53.8 °F 29.8 in North 3.1 mph 6.9 mph 72% 0 in 0 W/m2
02:08 62.8 °F 53.6 °F 29.8 in North 2.2 mph 6.9 mph 72% 0 in 0 W/m2
02:13 62.4 °F 54 °F 29.8 in North 3.1 mph 6 mph 74% 0 in 0 W/m2
02:18 62.2 °F 54 °F 29.8 in NNW 3.1 mph 7.6 mph 74% 0 in 0 W/m2
02:23 62.1 °F 53.8 °F 29.8 in NNW 2.2 mph 7.6 mph 74% 0 in 0 W/m2
02:28 61.9 °F 54 °F 29.8 in North 3.1 mph 7.6 mph 75% 0 in 0 W/m2
02:33 61.9 °F 54 °F 29.8 in North 3.8 mph 8.3 mph 75% 0 in 0 W/m2
02:38 61.9 °F 54 °F 29.8 in NNW 3.1 mph 8.3 mph 75% 0 in 0 W/m2
02:43 61.9 °F 54 °F 29.8 in North 4.5 mph 7.6 mph 75% 0 in 0 W/m2
02:48 61.7 °F 53.8 °F 29.8 in NNW 3.1 mph 8.3 mph 75% 0 in 0 W/m2
02:53 61.5 °F 53.4 °F 29.8 in NNW 5.4 mph 8.3 mph 75% 0 in 0 W/m2
02:58 61.3 °F 53.4 °F 29.8 in North 5.4 mph 7.6 mph 75% 0 in 0 W/m2
03:03 61.3 °F 53.8 °F 29.8 in North 3.8 mph 7.6 mph 76% 0 in 0 W/m2
03:08 61.3 °F 53.8 °F 29.8 in North 3.1 mph 7.6 mph 76% 0 in 0 W/m2
03:13 61.2 °F 53.6 °F 29.8 in North 3.1 mph 6 mph 76% 0 in 0 W/m2
03:18 61.2 °F 53.6 °F 29.8 in North 2.2 mph 5.4 mph 76% 0 in 0 W/m2
03:23 61.3 °F 53.8 °F 29.8 in North 3.1 mph 6 mph 76% 0 in 0 W/m2
03:28 61.3 °F 53.8 °F 29.8 in North 3.8 mph 6 mph 76% 0 in 0 W/m2
03:33 61.5 °F 54 °F 29.8 in North 3.1 mph 6 mph 76% 0 in 0 W/m2
03:38 61.3 °F 53.4 °F 29.8 in North 3.1 mph 6 mph 75% 0 in 0 W/m2
03:43 61.2 °F 53.6 °F 29.8 in NNE 2.2 mph 5.4 mph 76% 0 in 0 W/m2
03:48 61.2 °F 53.6 °F 29.8 in NNE 2.2 mph 5.4 mph 76% 0 in 0 W/m2
03:53 61 °F 53.4 °F 29.8 in NNE 0.7 mph 5.4 mph 76% 0 in 0 W/m2
03:58 60.6 °F 53.4 °F 29.8 in North 1.6 mph 3.8 mph 77% 0 in 0 W/m2
04:03 60.4 °F 53.2 °F 29.8 in NNW 0.7 mph 3.8 mph 77% 0 in 0 W/m2
04:08 60.3 °F 53.1 °F 29.8 in Calm   3.1 mph 77% 0 in 0 W/m2
04:13 59.9 °F 52.7 °F 29.8 in NW 0.7 mph 2.2 mph 77% 0 in 0 W/m2
04:18 59.5 °F 52.3 °F 29.8 in NW 2.2 mph 3.1 mph 77% 0 in 0 W/m2
04:23 59.2 °F 52.3 °F 29.8 in NW 2.2 mph 3.8 mph 78% 0 in 0 W/m2
04:28 59.2 °F 53.1 °F 29.8 in NNW 2.2 mph 3.8 mph 80% 0 in 0 W/m2
04:33 59.2 °F 53.4 °F 29.8 in NNW 1.6 mph 3.8 mph 81% 0 in 0 W/m2
04:38 59.4 °F 53.4 °F 29.8 in NNW 3.1 mph 5.4 mph 81% 0 in 0 W/m2
04:43 59.4 °F 53.4 °F 29.8 in NNW 2.2 mph 5.4 mph 81% 0 in 0 W/m2
04:48 59.2 °F 53.4 °F 29.8 in NW 1.6 mph 5.4 mph 81% 0 in 0 W/m2
04:53 58.8 °F 53.8 °F 29.8 in NW 3.1 mph 5.4 mph 83% 0 in 0 W/m2
04:58 58.5 °F 53.2 °F 29.8 in NW 2.2 mph 6 mph 83% 0 in 0 W/m2
05:03 58.1 °F 53.2 °F 29.8 in NW 3.1 mph 6 mph 84% 0 in 0 W/m2
05:08 57.6 °F 52.9 °F 29.8 in NW 3.1 mph 4.5 mph 84% 0 in 0 W/m2
05:13 57.2 °F 52.7 °F 29.8 in NW 3.1 mph 4.5 mph 85% 0 in 0 W/m2
05:18 56.8 °F 52.7 °F 29.8 in NW 0.7 mph 4.5 mph 86% 0 in 0 W/m2
05:23 56.5 °F 52.3 °F 29.8 in NW 2.2 mph 3.8 mph 86% 0 in 0 W/m2
05:28 56.1 °F 52.3 °F 29.8 in NW 0.7 mph 3.1 mph 87% 0 in 0 W/m2
05:32 55.9 °F 52.2 °F 29.8 in NW 1.6 mph 3.1 mph 87% 0 in 0 W/m2
05:37 55.8 °F 52.3 °F 29.8 in NW 1.6 mph 3.1 mph 88% 0 in 0 W/m2
05:42 55.4 °F 52 °F 29.8 in NW 1.6 mph 3.1 mph 88% 0 in 0 W/m2
05:47 55.2 °F 52 °F 29.8 in NW 1.6 mph 3.1 mph 89% 0 in 0 W/m2
05:52 55.2 °F 52 °F 29.8 in NW 1.6 mph 3.8 mph 89% 0 in 0 W/m2
05:57 55.4 °F 52.2 °F 29.8 in NW 1.6 mph 3.8 mph 89% 0 in 0 W/m2
06:02 55.6 °F 52.3 °F 29.8 in NW 1.6 mph 3.1 mph 89% 0 in 0 W/m2
06:07 55.6 °F 52.3 °F 29.8 in NW 1.6 mph 3.1 mph 89% 0 in 0 W/m2
06:12 55.6 °F 52.3 °F 29.8 in NW 2.2 mph 4.5 mph 89% 0 in 2 W/m2
06:17 55.6 °F 52.3 °F 29.8 in NW 2.2 mph 4.5 mph 89% 0 in 4 W/m2
06:22 55.4 °F 52.2 °F 29.8 in NW 3.1 mph 5.4 mph 89% 0 in 7 W/m2
06:27 55.2 °F 52 °F 29.8 in NW 3.1 mph 6 mph 89% 0 in 11 W/m2
06:32 55.2 °F 52.3 °F 29.8 in NW 2.2 mph 6 mph 90% 0 in 15 W/m2
06:37 55.4 °F 52.2 °F 29.8 in NW 1.6 mph 4.5 mph 89% 0 in 37 W/m2
06:42 55.9 °F 53.1 °F 29.8 in NNW 1.6 mph 3.8 mph 90% 0 in 46 W/m2
06:47 56.8 °F 53.6 °F 29.8 in NW 2.2 mph 3.1 mph 89% 0 in 52 W/m2
06:52 57.6 °F 53.4 °F 29.8 in NW 2.2 mph 3.8 mph 86% 0 in 55 W/m2
06:57 58.6 °F 53.8 °F 29.8 in NW 3.8 mph 4.5 mph 84% 0 in 60 W/m2
07:02 59.4 °F 53.4 °F 29.8 in NNW 4.5 mph 6 mph 81% 0 in 65 W/m2
07:07 59.5 °F 53.1 °F 29.8 in NNW 3.1 mph 6 mph 79% 0 in 71 W/m2
07:12 59.5 °F 52.7 °F 29.8 in NNW 3.8 mph 5.4 mph 78% 0 in 81 W/m2
07:17 59.9 °F 53.1 °F 29.8 in NNW 2.2 mph 5.4 mph 78% 0 in 90 W/m2
07:22 60.4 °F 53.2 °F 29.8 in NNW 2.2 mph 5.4 mph 77% 0 in 101 W/m2
07:27 61.3 °F 53.4 °F 29.8 in NNW 2.2 mph 4.5 mph 75% 0 in 113 W/m2
07:32 62.1 °F 53.2 °F 29.8 in NNW 3.1 mph 4.5 mph 73% 0 in 128 W/m2
07:37 62.6 °F 53.1 °F 29.8 in North 2.2 mph 4.5 mph 71% 0 in 140 W/m2
07:42 63.9 °F 53.4 °F 29.8 in North 3.8 mph 6 mph 69% 0 in 154 W/m2
07:47 64 °F 52.9 °F 29.8 in North 4.5 mph 9.8 mph 67% 0 in 169 W/m2
07:52 64 °F 52.5 °F 29.8 in North 5.4 mph 9.8 mph 66% 0 in 183 W/m2
07:57 64.4 °F 53.2 °F 29.8 in North 5.4 mph 9.8 mph 67% 0 in 194 W/m2
08:02 64.9 °F 53.2 °F 29.8 in North 6 mph 9.8 mph 66% 0 in 206 W/m2
08:07 65.5 °F 53.4 °F 29.8 in North 6.9 mph 10.7 mph 65% 0 in 219 W/m2
08:12 65.7 °F 53.6 °F 29.8 in NNW 5.4 mph 11.4 mph 65% 0 in 229 W/m2
08:17 66 °F 53.4 °F 29.8 in North 6.9 mph 11.4 mph 64% 0 in 246 W/m2
08:22 66.6 °F 53.2 °F 29.8 in NNW 6 mph 10.7 mph 62% 0 in 260 W/m2
08:27 66.9 °F 53.1 °F 29.8 in NNW 6 mph 10.7 mph 61% 0 in 274 W/m2
08:32 66.9 °F 52.5 °F 29.8 in NNW 4.5 mph 9.2 mph 60% 0 in 284 W/m2
08:37 67.5 °F 53.6 °F 29.8 in North 1.6 mph 9.2 mph 61% 0 in 300 W/m2
08:42 68.7 °F 53.8 °F 29.9 in North 1.6 mph 9.2 mph 59% 0 in 317 W/m2
08:47 69.6 °F 54.1 °F 29.8 in North 0.7 mph 6 mph 58% 0 in 332 W/m2
08:52 70.3 °F 53.4 °F 29.8 in NNW 2.2 mph 6 mph 55% 0 in 350 W/m2
08:57 70.9 °F 53.4 °F 29.8 in NNW 5.4 mph 8.3 mph 54% 0 in 367 W/m2
09:02 70.9 °F 52.3 °F 29.8 in NNW 6.9 mph 9.8 mph 52% 0 in 384 W/m2
09:07 70.2 °F 52.3 °F 29.8 in NNW 3.8 mph 11.4 mph 53% 0 in 398 W/m2
09:12 70.3 °F 52.3 °F 29.8 in NW 10.7 mph 13 mph 53% 0 in 418 W/m2
09:17 70.3 °F 52.9 °F 29.8 in NW 6 mph 13 mph 54% 0 in 436 W/m2
09:22 71.1 °F 52.5 °F 29.8 in NNW 9.8 mph 13 mph 52% 0 in 461 W/m2
09:27 71.4 °F 52.3 °F 29.8 in NNW 12.1 mph 16.8 mph 51% 0 in 478 W/m2
09:32 71.4 °F 52.3 °F 29.8 in NNW 8.3 mph 16.8 mph 51% 0 in 492 W/m2
09:37 71.6 °F 52.5 °F 29.8 in NNW 9.8 mph 15.9 mph 51% 0 in 510 W/m2
09:42 71.6 °F 51.4 °F 29.8 in North 8.3 mph 15.9 mph 49% 0 in 529 W/m2
09:47 72.7 °F 52.3 °F 29.8 in North 6.9 mph 15.9 mph 49% 0 in 549 W/m2
09:51 72.7 °F 51.3 °F 29.8 in WNW 6 mph 9.2 mph 47% 0 in 559 W/m2
09:52 72.7 °F 52 °F 29.8 in NNW 6 mph 12.1 mph 48% 0 in 568 W/m2
09:57 72.9 °F 52.2 °F 29.8 in NW 6 mph 13 mph 48% 0 in 591 W/m2
10:27 75.6 °F 52.7 °F 29.8 in North 6.9 mph 9.2 mph 45% 0 in 704 W/m2
10:33 75.9 °F 52.5 °F 29.8 in NNW 4.5 mph 13 mph 44% 0 in 760 W/m2
10:38 76.5 °F 49.6 °F 29.8 in NW 6 mph 13 mph 39% 0 in 779 W/m2
10:43 76.8 °F 50 °F 29.8 in NW 7.6 mph 13.6 mph 39% 0 in 807 W/m2
10:48 77 °F 48.7 °F 29.8 in WNW 4.5 mph 13.6 mph 37% 0 in 821 W/m2
10:53 77.5 °F 50 °F 29.8 in WNW 3.1 mph 13.6 mph 38% 0 in 841 W/m2
10:59 79 °F 48.9 °F 29.8 in WNW 9.8 mph 12.1 mph 35% 0 in 860 W/m2
11:04 75.7 °F 54.1 °F 29.8 in SW 6 mph 13.6 mph 47% 0 in 863 W/m2
11:09 75 °F 54 °F 29.8 in SSW 6.9 mph 13.6 mph 48% 0 in 870 W/m2
11:14 74.3 °F 52.9 °F 29.8 in South 6 mph 11.4 mph 47% 0 in 877 W/m2
11:19 74.7 °F 53.8 °F 29.8 in South 8.3 mph 11.4 mph 48% 0 in 889 W/m2
11:24 73.6 °F 53.2 °F 29.9 in South 6 mph 13 mph 49% 0 in 892 W/m2
11:29 73.9 °F 55.2 °F 29.8 in South 6.9 mph 13 mph 52% 0 in 902 W/m2
11:34 74.1 °F 55.4 °F 29.8 in SSE 6 mph 10.7 mph 52% 0 in 916 W/m2
11:40 73.9 °F 53.6 °F 29.8 in South 7.6 mph 11.4 mph 49% 0 in 924 W/m2
11:45 74.3 °F 53.4 °F 29.8 in SSW 6 mph 11.4 mph 48% 0 in 931 W/m2
11:50 74.3 °F 52.9 °F 29.8 in SSW 5.4 mph 11.4 mph 47% 0 in 937 W/m2
11:55 75.2 °F 53.6 °F 29.8 in South 6 mph 11.4 mph 47% 0 in 948 W/m2
12:00 76.3 °F 54 °F 29.8 in SSW 9.2 mph 11.4 mph 46% 0 in 960 W/m2
12:05 75.7 °F 50.4 °F 29.8 in SSW 6.9 mph 12.1 mph 41% 0 in 959 W/m2
12:10 76.3 °F 51.4 °F 29.8 in SSW 7.6 mph 12.1 mph 42% 0 in 966 W/m2
12:15 76.3 °F 52.9 °F 29.8 in South 3.1 mph 9.8 mph 44% 0 in 971 W/m2
12:20 76.6 °F 52.5 °F 29.8 in South 5.4 mph 9.8 mph 43% 0 in 974 W/m2
12:25 76.8 °F 52.7 °F 29.8 in South 4.5 mph 9.2 mph 43% 0 in 974 W/m2
12:30 76.3 °F 52.9 °F 29.8 in SSE 6.9 mph 9.8 mph 44% 0 in 974 W/m2
12:36 76.1 °F 51.4 °F 29.8 in South 8.3 mph 10.7 mph 42% 0 in 976 W/m2
12:41 76.1 °F 52.5 °F 29.8 in South 4.5 mph 10.7 mph 44% 0 in 975 W/m2
12:47 77 °F 49.5 °F 29.8 in South 6.9 mph 10.7 mph 38% 0 in 981 W/m2
12:54 77.9 °F 53.6 °F 29.8 in SSE 4.5 mph 9.2 mph 43% 0 in 983 W/m2
13:05 79 °F 48.4 °F 29.8 in South 3.8 mph 6.9 mph 34% 0 in 988 W/m2
13:10 78.4 °F 52.9 °F 29.8 in SSE 6 mph 9.8 mph 41% 0 in 982 W/m2
13:15 79 °F 50.5 °F 29.8 in South 5.4 mph 9.8 mph 37% 0 in 980 W/m2
13:20 79 °F 48.4 °F 29.8 in SSW 4.5 mph 9.8 mph 34% 0 in 979 W/m2
13:25 78.4 °F 54.9 °F 29.8 in South 4.5 mph 9.8 mph 44% 0 in 968 W/m2
13:26 78.6 °F 54.9 °F 29.8 in South 2.2 mph 9.8 mph 44% 0 in 967 W/m2
13:31 78.6 °F 50.2 °F 29.8 in South 6 mph 12.1 mph 37% 0 in 964 W/m2
13:37 78.1 °F 51.1 °F 29.8 in South 6 mph 12.1 mph 39% 0 in 955 W/m2
13:42 78.8 °F 49.6 °F 29.8 in South 3.1 mph 9.8 mph 36% 0 in 949 W/m2
13:47 79.3 °F 50.2 °F 29.8 in SSE 5.4 mph 9.8 mph 36% 0 in 947 W/m2
13:52 80.1 °F 48.4 °F 29.8 in SSE 3.8 mph 9.8 mph 33% 0 in 944 W/m2
13:57 79.7 °F 48 °F 29.8 in South 4.5 mph 10.7 mph 33% 0 in 939 W/m2
14:02 80.1 °F 47.7 °F 29.8 in South 8.3 mph 10.7 mph 32% 0 in 934 W/m2
14:07 79.7 °F 48 °F 29.8 in SSE 2.2 mph 9.8 mph 33% 0 in 923 W/m2
14:12 81 °F 47.5 °F 29.8 in SSE 4.5 mph 9.2 mph 31% 0 in 921 W/m2
14:17 81.9 °F 48.4 °F 29.8 in SSE 6 mph 8.3 mph 31% 0 in 918 W/m2
14:22 80.2 °F 47.7 °F 29.8 in South 5.4 mph 9.2 mph 32% 0 in 904 W/m2
14:27 80.8 °F 46.6 °F 29.8 in SSE 6.9 mph 9.2 mph 30% 0 in 897 W/m2
14:32 81 °F 46.8 °F 29.8 in SSE 3.1 mph 9.2 mph 30% 0 in 890 W/m2
14:50 81.3 °F 46 °F 29.8 in SSE 5.4 mph 9.8 mph 29% 0 in 860 W/m2
14:55 81.3 °F 52 °F 29.8 in SSE 4.5 mph 9.8 mph 36% 0 in 847 W/m2
15:00 81.7 °F 50.5 °F 29.8 in SSE 3.1 mph 9.8 mph 34% 0 in 837 W/m2
15:05 81.7 °F 53.6 °F 29.8 in SSE 6.9 mph 9.8 mph 38% 0 in 825 W/m2
15:10 81.3 °F 54.7 °F 29.8 in SE 4.5 mph 9.8 mph 40% 0 in 815 W/m2
15:15 81.1 °F 50.2 °F 29.8 in SE 1.6 mph 9.8 mph 34% 0 in 717 W/m2
15:20 81.9 °F 48.4 °F 29.8 in SSE 4.5 mph 9.2 mph 31% 0 in 719 W/m2
15:25 82.4 °F 51.3 °F 29.8 in South 8.3 mph 10.7 mph 34% 0 in 750 W/m2
15:30 80.6 °F 48.9 °F 29.8 in South 5.4 mph 10.7 mph 33% 0 in 768 W/m2
15:36 81.7 °F 51.4 °F 29.8 in SSE 3.1 mph 10.7 mph 35% 0 in 756 W/m2
15:41 82.8 °F 52.3 °F 29.8 in SSE 3.8 mph 7.6 mph 35% 0 in 685 W/m2
15:46 83.5 °F 51.4 °F 29.8 in SSE 3.8 mph 7.6 mph 33% 0 in 552 W/m2
15:51 84 °F 51.1 °F 29.8 in SE 3.8 mph 7.6 mph 32% 0 in 484 W/m2
15:56 83.3 °F 48.7 °F 29.8 in SSE 2.2 mph 6.9 mph 30% 0 in 483 W/m2
16:01 83.8 °F 50 °F 29.8 in SSE 5.4 mph 9.2 mph 31% 0 in 587 W/m2
16:06 83.8 °F 50 °F 29.8 in SE 3.1 mph 9.2 mph 31% 0 in 418 W/m2
16:17 83.5 °F 50.5 °F 29.8 in SSE 4.5 mph 8.3 mph 32% 0 in 664 W/m2
16:22 84.7 °F 53.2 °F 29.8 in SE 6 mph 9.8 mph 34% 0 in 649 W/m2
16:27 83.5 °F 53.8 °F 29.8 in SSE 5.4 mph 9.8 mph 36% 0 in 630 W/m2
16:32 82.4 °F 52 °F 29.8 in SSE 3.1 mph 11.4 mph 35% 0 in 616 W/m2
16:37 82 °F 48.6 °F 29.8 in SE 6 mph 12.1 mph 31% 0 in 601 W/m2
16:39 82 °F 48.6 °F 29.8 in ESE 2.2 mph 12.1 mph 31% 0 in 596 W/m2
16:44 82.9 °F 50.2 °F 29.8 in SE 5.4 mph 12.1 mph 32% 0 in 586 W/m2
16:49 84.7 °F 49.8 °F 29.8 in SE 3.8 mph 8.3 mph 30% 0 in 573 W/m2
16:55 85.1 °F 49.3 °F 29.8 in SE 2.2 mph 7.6 mph 29% 0 in 557 W/m2
17:00 84.6 °F 48.9 °F 29.8 in SE 5.4 mph 10.7 mph 29% 0 in 544 W/m2
17:05 83.3 °F 51.3 °F 29.8 in SSE 4.5 mph 10.7 mph 33% 0 in 527 W/m2
17:10 82.9 °F 53.2 °F 29.8 in SE 3.1 mph 9.8 mph 36% 0 in 508 W/m2
17:15 83.3 °F 52.9 °F 29.8 in SSE 3.8 mph 9.2 mph 35% 0 in 494 W/m2
17:20 82.8 °F 52.3 °F 29.8 in South 2.2 mph 9.2 mph 35% 0 in 479 W/m2
17:25 82.9 °F 50.2 °F 29.8 in SSE 6 mph 9.2 mph 32% 0 in 464 W/m2
17:30 83.3 °F 51.3 °F 29.8 in SSE 5.4 mph 9.2 mph 33% 0 in 460 W/m2
17:35 83.3 °F 51.3 °F 29.8 in SSE 5.4 mph 9.2 mph 33% 0 in 460 W/m2
17:40 83.3 °F 51.3 °F 29.8 in SSE 5.4 mph 9.2 mph 33% 0 in 460 W/m2
17:46 83.3 °F 51.3 °F 29.8 in SSE 5.4 mph 9.2 mph 33% 0 in 460 W/m2
17:51 83.3 °F 51.3 °F 29.8 in SSE 5.4 mph 9.2 mph 33% 0 in 460 W/m2
17:56 83.3 °F 51.3 °F 29.8 in SSE 5.4 mph 9.2 mph 33% 0 in 460 W/m2
18:01 83.3 °F 51.3 °F 29.8 in SSE 5.4 mph 9.2 mph 33% 0 in 460 W/m2
18:06 83.3 °F 51.3 °F 29.8 in SSE 5.4 mph 9.2 mph 33% 0 in 460 W/m2
18:11 83.3 °F 51.3 °F 29.8 in SSE 5.4 mph 9.2 mph 33% 0 in 460 W/m2
18:16 83.3 °F 51.3 °F 29.8 in SSE 5.4 mph 9.2 mph 33% 0 in 460 W/m2
18:22 83.3 °F 51.3 °F 29.8 in SSE 5.4 mph 9.2 mph 33% 0 in 460 W/m2
18:27 83.3 °F 51.3 °F 29.8 in SSE 5.4 mph 9.2 mph 33% 0 in 460 W/m2
18:32 83.3 °F 51.3 °F 29.8 in SSE 5.4 mph 9.2 mph 33% 0 in 460 W/m2
18:38 83.3 °F 51.3 °F 29.8 in SSE 5.4 mph 9.2 mph 33% 0 in 460 W/m2
18:43 83.3 °F 51.3 °F 29.8 in SSE 5.4 mph 9.2 mph 33% 0 in 460 W/m2
18:48 83.3 °F 51.3 °F 29.8 in SSE 5.4 mph 9.2 mph 33% 0 in 460 W/m2
18:53 83.3 °F 51.3 °F 29.8 in SSE 5.4 mph 9.2 mph 33% 0 in 460 W/m2
18:58 83.3 °F 51.3 °F 29.8 in SSE 5.4 mph 9.2 mph 33% 0 in 460 W/m2
19:03 83.3 °F 51.3 °F 29.8 in SSE 5.4 mph 9.2 mph 33% 0 in 460 W/m2
19:08 83.3 °F 51.3 °F 29.8 in SSE 5.4 mph 9.2 mph 33% 0 in 460 W/m2
19:13 83.3 °F 51.3 °F 29.8 in SSE 5.4 mph 9.2 mph 33% 0 in 460 W/m2
19:18 83.3 °F 51.3 °F 29.8 in SSE 5.4 mph 9.2 mph 33% 0 in 460 W/m2
19:23 83.3 °F 51.3 °F 29.8 in SSE 5.4 mph 9.2 mph 33% 0 in 460 W/m2
19:28 83.3 °F 51.3 °F 29.8 in SSE 5.4 mph 9.2 mph 33% 0 in 460 W/m2
19:33 83.3 °F 51.3 °F 29.8 in SSE 5.4 mph 9.2 mph 33% 0 in 460 W/m2
19:39 83.3 °F 51.3 °F 29.8 in SSE 5.4 mph 9.2 mph 33% 0 in 460 W/m2
19:44 83.3 °F 51.3 °F 29.8 in SSE 5.4 mph 9.2 mph 33% 0 in 460 W/m2
19:55 83.3 °F 51.3 °F 29.8 in SSE 5.4 mph 9.2 mph 33% 0 in 460 W/m2
20:00 83.3 °F 51.3 °F 29.8 in SSE 5.4 mph 9.2 mph 33% 0 in 460 W/m2
20:05 83.3 °F 51.3 °F 29.8 in SSE 5.4 mph 9.2 mph 33% 0 in 460 W/m2
20:10 83.3 °F 51.3 °F 29.8 in SSE 5.4 mph 9.2 mph 33% 0 in 460 W/m2
20:15 83.3 °F 51.3 °F 29.8 in SSE 5.4 mph 9.2 mph 33% 0 in 460 W/m2
20:20 83.3 °F 51.3 °F 29.8 in SSE 5.4 mph 9.2 mph 33% 0 in 460 W/m2
20:25 83.3 °F 51.3 °F 29.8 in SSE 5.4 mph 9.2 mph 33% 0 in 460 W/m2
20:31 83.3 °F 51.3 °F 29.8 in SSE 5.4 mph 9.2 mph 33% 0 in 460 W/m2
20:36 83.3 °F 51.3 °F 29.8 in SSE 5.4 mph 9.2 mph 33% 0 in 460 W/m2
20:42 83.3 °F 51.3 °F 29.8 in SSE 5.4 mph 9.2 mph 33% 0 in 460 W/m2
20:47 83.3 °F 51.3 °F 29.8 in SSE 5.4 mph 9.2 mph 33% 0 in 460 W/m2
20:52 83.3 °F 51.3 °F 29.8 in SSE 5.4 mph 9.2 mph 33% 0 in 460 W/m2
20:57 83.3 °F 51.3 °F 29.8 in SSE 5.4 mph 9.2 mph 33% 0 in 460 W/m2
21:02 83.3 °F 51.3 °F 29.8 in SSE 5.4 mph 9.2 mph 33% 0 in 460 W/m2
21:07 83.3 °F 51.3 °F 29.8 in SSE 5.4 mph 9.2 mph 33% 0 in 460 W/m2
21:12 83.3 °F 51.3 °F 29.8 in SSE 5.4 mph 9.2 mph 33% 0 in 460 W/m2
21:17 83.3 °F 51.3 °F 29.8 in SSE 5.4 mph 9.2 mph 33% 0 in 460 W/m2
21:22 83.3 °F 51.3 °F 29.8 in SSE 5.4 mph 9.2 mph 33% 0 in 460 W/m2
21:28 83.3 °F 51.3 °F 29.8 in SSE 5.4 mph 9.2 mph 33% 0 in 460 W/m2
21:33 83.3 °F 51.3 °F 29.8 in SSE 5.4 mph 9.2 mph 33% 0 in 460 W/m2
21:38 83.3 °F 51.3 °F 29.8 in SSE 5.4 mph 9.2 mph 33% 0 in 460 W/m2
21:43 83.3 °F 51.3 °F 29.8 in SSE 5.4 mph 9.2 mph 33% 0 in 460 W/m2
21:48 83.3 °F 51.3 °F 29.8 in SSE 5.4 mph 9.2 mph 33% 0 in 460 W/m2
21:54 83.3 °F 51.3 °F 29.8 in SSE 5.4 mph 9.2 mph 33% 0 in 460 W/m2
21:59 83.3 °F 51.3 °F 29.8 in SSE 5.4 mph 9.2 mph 33% 0 in 460 W/m2
22:04 83.3 °F 51.3 °F 29.8 in SSE 5.4 mph 9.2 mph 33% 0 in 460 W/m2
22:09 83.3 °F 51.3 °F 29.8 in SSE 5.4 mph 9.2 mph 33% 0 in 460 W/m2
22:14 83.3 °F 51.3 °F 29.8 in SSE 5.4 mph 9.2 mph 33% 0 in 460 W/m2
22:16 83.3 °F 51.3 °F 29.8 in SSE 5.4 mph 9.2 mph 33% 0 in 460 W/m2
22:21 83.3 °F 51.3 °F 29.8 in SSE 5.4 mph 9.2 mph 33% 0 in 460 W/m2
22:26 83.3 °F 51.3 °F 29.8 in SSE 5.4 mph 9.2 mph 33% 0 in 460 W/m2
22:31 64.2 °F 54.7 °F 29.9 in Calm   0.7 mph 71% 0 in 0 W/m2
22:36 63.9 °F 54.3 °F 29.9 in Calm   1.6 mph 71% 0 in 0 W/m2
22:41 63.5 °F 54 °F 29.9 in NNE 2.2 mph 3.1 mph 71% 0 in 0 W/m2
22:46 63.3 °F 54.1 °F 29.9 in NE 1.6 mph 3.8 mph 72% 0 in 0 W/m2
22:52 63.1 °F 54 °F 29.9 in Calm   3.8 mph 72% 0 in 0 W/m2
22:57 63.1 °F 54.3 °F 29.9 in North 0.7 mph 3.1 mph 73% 0 in 0 W/m2
23:02 63.1 °F 54.3 °F 29.9 in Calm   3.1 mph 73% 0 in 0 W/m2
23:07 62.8 °F 54 °F 29.9 in Calm   4.5 mph 73% 0 in 0 W/m2
23:12 62.6 °F 54.1 °F 29.9 in West 2.2 mph 4.5 mph 74% 0 in 0 W/m2
23:17 62.8 °F 54.3 °F 29.9 in WNW 0.7 mph 3.8 mph 74% 0 in 0 W/m2
23:22 63 °F 54.7 °F 29.9 in Calm   3.1 mph 74% 0 in 0 W/m2
23:27 63 °F 54.7 °F 29.9 in Calm   3.1 mph 74% 0 in 0 W/m2
23:32 63 °F 54.7 °F 29.9 in WSW 2.2 mph 4.5 mph 74% 0 in 0 W/m2
23:37 63.3 °F 55.2 °F 29.9 in SW 3.1 mph 4.5 mph 75% 0 in 0 W/m2
23:42 64.4 °F 56.7 °F 29.9 in SW 6 mph 9.2 mph 76% 0 in 0 W/m2
23:47 66.2 °F 56.8 °F 29.9 in WSW 7.6 mph 13 mph 72% 0 in 0 W/m2
23:52 67.3 °F 55.9 °F 29.9 in WSW 8.3 mph 16.8 mph 67% 0 in 0 W/m2
23:57 68 °F 55 °F 29.9 in WSW 7.6 mph 16.8 mph 63% 0 in 0 W/m2
Northern Hawkes Bay. New Zealand Historic Data
Compliments of Weather Underground - 2 mb